createdAt,value
2022-09-27T00:04:31.608Z,7.20
2022-09-27T00:09:24.981Z,7.80
2022-09-27T00:14:19.967Z,6.63
2022-09-27T00:19:16.659Z,7.40
2022-09-27T00:24:13.519Z,7.45
2022-09-27T00:29:06.797Z,7.40
2022-09-27T00:34:03.616Z,7.43
2022-09-27T00:38:59.998Z,7.47
2022-09-27T00:43:54.997Z,8.23
2022-09-27T00:48:50.174Z,7.82
2022-09-27T00:53:47.238Z,7.95
2022-09-27T00:58:48.221Z,8.15
2022-09-27T01:03:47.262Z,8.45
2022-09-27T01:08:40.584Z,8.70
2022-09-27T01:13:42.485Z,8.50
2022-09-27T01:18:47.181Z,8.73
2022-09-27T01:24:18.282Z,8.80
2022-09-27T01:34:18.244Z,7.95
2022-09-27T01:39:28.439Z,8.23
2022-09-27T01:44:51.862Z,9.15
2022-09-27T01:49:55.614Z,8.63
2022-09-27T01:54:54.277Z,7.65
2022-09-27T02:00:00.715Z,8.73
2022-09-27T02:05:14.357Z,8.45
2022-09-27T02:10:14.619Z,8.23
2022-09-27T02:15:16.752Z,8.63
2022-09-27T02:20:28.507Z,9.10
2022-09-27T02:25:25.877Z,9.48
2022-09-27T02:30:22.101Z,8.70
2022-09-27T02:35:30.965Z,8.75
2022-09-27T02:40:25.082Z,8.95
2022-09-27T02:45:20.766Z,9.45
2022-09-27T02:50:33.457Z,8.82
2022-09-27T02:55:59.317Z,8.43
2022-09-27T03:01:28.057Z,9.05
2022-09-27T03:06:43.559Z,11.48
2022-09-27T03:11:36.835Z,10.65
2022-09-27T03:16:33.221Z,10.20
2022-09-27T03:21:54.237Z,8.27
2022-09-27T03:26:48.106Z,9.60
2022-09-27T03:31:42.063Z,10.52
2022-09-27T03:36:58.034Z,8.80
2022-09-27T03:41:51.716Z,9.00
2022-09-27T03:46:45.408Z,10.73
2022-09-27T03:51:38.956Z,9.27
2022-09-27T03:56:33.873Z,9.13
2022-09-27T04:01:27.949Z,9.32
2022-09-27T04:06:37.525Z,8.98
2022-09-27T04:11:31.351Z,9.57
2022-09-27T04:16:27.823Z,8.98
2022-09-27T04:21:42.128Z,9.68
2022-09-27T04:26:37.568Z,14.27
2022-09-27T04:31:39.235Z,13.30
2022-09-27T04:36:50.430Z,11.52
2022-09-27T04:41:47.805Z,10.25
2022-09-27T04:46:42.964Z,13.32
2022-09-27T04:51:38.020Z,10.40
2022-09-27T04:56:31.670Z,10.98
2022-09-27T05:01:27.097Z,9.55
2022-09-27T05:06:27.705Z,9.87
2022-09-27T05:11:27.188Z,10.00
2022-09-27T05:16:43.949Z,10.40
2022-09-27T05:21:57.466Z,10.15
2022-09-27T05:26:51.198Z,10.60
2022-09-27T05:31:44.773Z,10.07
2022-09-27T05:36:38.582Z,10.18
2022-09-27T05:41:34.670Z,10.57
2022-09-27T05:46:28.680Z,9.48
2022-09-27T05:51:22.576Z,9.75
2022-09-27T05:56:16.025Z,8.88
2022-09-27T06:01:31.538Z,9.57
2022-09-27T06:07:12.198Z,10.63
2022-09-27T06:12:05.909Z,10.43
2022-09-27T06:17:00.757Z,10.30
2022-09-27T06:21:58.453Z,10.17
2022-09-27T06:27:00.021Z,11.05
2022-09-27T06:32:05.667Z,10.43
2022-09-27T06:37:28.551Z,10.35
2022-09-27T06:42:22.437Z,9.82
2022-09-27T06:47:27.334Z,10.95
2022-09-27T06:52:38.519Z,10.95
2022-09-27T06:57:49.486Z,11.90
2022-09-27T07:02:46.643Z,10.73
2022-09-27T07:07:58.981Z,11.00
2022-09-27T07:12:53.370Z,12.57
2022-09-27T07:17:48.185Z,12.35
2022-09-27T07:22:43.259Z,12.43
2022-09-27T07:27:38.711Z,10.10
2022-09-27T07:32:35.708Z,8.68
2022-09-27T07:37:33.383Z,9.13
2022-09-27T07:42:27.472Z,9.23
2022-09-27T07:47:21.352Z,8.38
2022-09-27T07:52:42.224Z,7.88
2022-09-27T07:58:03.112Z,8.15
2022-09-27T08:02:56.523Z,6.93
2022-09-27T08:07:56.794Z,7.75
2022-09-27T08:12:51.547Z,8.52
2022-09-27T08:17:52.541Z,9.40
2022-09-27T08:23:07.897Z,10.53
2022-09-27T08:28:08.667Z,11.43
2022-09-27T08:33:07.939Z,11.03
2022-09-27T08:38:05.669Z,9.40
2022-09-27T08:43:11.856Z,10.23
2022-09-27T08:48:06.609Z,10.75
2022-09-27T08:53:05.477Z,10.50
2022-09-27T08:58:00.925Z,11.33
2022-09-27T09:02:57.715Z,10.57
2022-09-27T09:08:06.401Z,9.88
2022-09-27T09:13:12.672Z,9.82
2022-09-27T09:18:25.180Z,9.60
2022-09-27T09:24:10.734Z,8.98
2022-09-27T09:29:23.881Z,9.50
2022-09-27T09:34:24.517Z,10.00
2022-09-27T09:39:23.762Z,9.60
2022-09-27T09:44:25.463Z,10.05
2022-09-27T09:49:25.486Z,9.90
2022-09-27T09:54:27.756Z,10.85
2022-09-27T09:59:33.526Z,8.68
2022-09-27T10:04:29.716Z,8.82
2022-09-27T10:09:27.863Z,9.30
2022-09-27T10:14:59.271Z,9.75
2022-09-27T10:19:54.968Z,8.90
2022-09-27T10:24:57.675Z,8.88
2022-09-27T10:30:24.786Z,8.18
2022-09-27T10:35:36.976Z,5.80
2022-09-27T10:40:35.480Z,6.38
2022-09-27T10:45:35.334Z,6.22
2022-09-27T10:50:59.285Z,6.65
2022-09-27T10:56:05.403Z,6.40
2022-09-27T11:01:03.581Z,6.97
2022-09-27T11:06:20.742Z,7.03
2022-09-27T11:11:21.435Z,7.03
2022-09-27T11:16:30.077Z,6.65
2022-09-27T11:21:36.344Z,8.05
2022-09-27T11:26:42.071Z,8.85
2022-09-27T11:31:44.040Z,8.60
2022-09-27T11:36:54.648Z,8.38
2022-09-27T11:42:06.939Z,9.82
2022-09-27T11:47:18.428Z,9.13
2022-09-27T11:52:34.458Z,8.52
2022-09-27T11:57:34.514Z,8.23
2022-09-27T12:02:46.686Z,7.03
2022-09-27T12:07:48.102Z,7.30
2022-09-27T12:12:46.079Z,6.75
2022-09-27T12:17:43.459Z,7.30
2022-09-27T12:22:58.649Z,6.57
2022-09-27T12:28:23.441Z,7.55
2022-09-27T12:33:29.363Z,6.00
2022-09-27T12:38:32.296Z,6.18
2022-09-27T12:43:28.923Z,5.43
2022-09-27T12:48:51.980Z,6.03
2022-09-27T12:54:13.879Z,5.63
2022-09-27T12:59:24.909Z,5.40
2022-09-27T13:04:34.206Z,5.20
2022-09-27T13:10:07.651Z,5.00
2022-09-27T13:15:06.802Z,5.32
2022-09-27T13:20:44.873Z,6.15
2022-09-27T13:26:04.510Z,5.88
2022-09-27T13:31:11.775Z,4.63
2022-09-27T13:36:30.731Z,4.93
2022-09-27T13:41:41.835Z,5.40
2022-09-27T13:46:37.068Z,5.93
2022-09-27T13:51:39.511Z,6.13
2022-09-27T13:56:56.329Z,6.15
2022-09-27T14:01:53.219Z,5.82
2022-09-27T14:06:58.426Z,5.55
2022-09-27T14:11:59.379Z,5.78
2022-09-27T14:16:54.592Z,4.93
2022-09-27T14:21:59.834Z,5.70
2022-09-27T14:27:24.353Z,4.70
2022-09-27T14:32:31.952Z,4.90
2022-09-27T14:37:30.345Z,6.07
2022-09-27T14:42:37.758Z,6.13
2022-09-27T14:52:28.711Z,7.40
2022-09-27T14:57:23.419Z,7.78
2022-09-27T15:02:22.350Z,7.65
2022-09-27T15:07:17.233Z,7.87
2022-09-27T15:12:15.765Z,8.93
2022-09-27T15:17:21.141Z,10.10
2022-09-27T15:22:38.273Z,10.43
2022-09-27T15:27:33.597Z,9.90
2022-09-27T15:32:30.223Z,10.55
2022-09-27T15:37:30.061Z,9.98
2022-09-27T15:42:24.062Z,9.50
2022-09-27T15:47:52.764Z,8.45
2022-09-27T15:52:55.998Z,9.35
2022-09-27T15:57:54.871Z,8.35
2022-09-27T16:02:58.489Z,8.50
2022-09-27T16:07:51.894Z,9.50
2022-09-27T16:12:45.870Z,9.60
2022-09-27T16:17:40.359Z,9.15
2022-09-27T16:22:35.052Z,10.32
2022-09-27T16:27:29.525Z,10.43
2022-09-27T16:32:25.493Z,11.32
2022-09-27T16:37:18.909Z,10.95
2022-09-27T16:42:14.766Z,10.45
2022-09-27T16:47:08.971Z,10.07
2022-09-27T16:52:05.203Z,11.65
2022-09-27T16:56:59.912Z,11.38
2022-09-27T17:01:57.689Z,11.10
2022-09-27T17:06:51.561Z,11.50
2022-09-27T17:11:44.809Z,11.68
2022-09-27T17:16:39.543Z,13.60
2022-09-27T17:21:37.950Z,13.23
2022-09-27T17:26:32.332Z,12.38
2022-09-27T17:31:26.542Z,11.77
2022-09-27T17:36:26.197Z,12.15
2022-09-27T17:46:20.015Z,11.77
2022-09-27T17:51:14.416Z,12.15
2022-09-27T17:56:08.260Z,12.32
2022-09-27T18:01:05.355Z,12.73
2022-09-27T18:05:59.335Z,12.15
2022-09-27T18:10:52.534Z,12.38
2022-09-27T18:15:56.890Z,13.80
2022-09-27T18:20:51.720Z,13.95
2022-09-27T18:25:45.216Z,14.07
2022-09-27T18:30:38.446Z,11.38
2022-09-27T18:35:31.864Z,13.93
2022-09-27T18:40:51.379Z,15.30
2022-09-27T18:45:40.929Z,13.82
2022-09-27T18:50:37.866Z,12.60
2022-09-27T18:55:36.042Z,12.48
2022-09-27T19:00:30.185Z,12.43
2022-09-27T19:05:44.550Z,11.23
2022-09-27T19:10:39.353Z,11.80
2022-09-27T19:15:32.639Z,11.40
2022-09-27T19:20:26.132Z,10.50
2022-09-27T19:25:19.287Z,14.32
2022-09-27T19:30:15.193Z,15.02
2022-09-27T19:35:09.219Z,12.70
2022-09-27T19:40:03.517Z,13.98
2022-09-27T19:44:56.656Z,13.60
2022-09-27T19:49:51.302Z,14.95
2022-09-27T19:54:45.049Z,14.05
2022-09-27T19:59:38.225Z,5.32
2022-09-27T20:04:31.397Z,3.10
2022-09-27T20:09:26.074Z,2.50
2022-09-27T20:14:20.058Z,2.78
2022-09-27T20:19:13.684Z,2.70
2022-09-27T20:24:07.360Z,2.90
2022-09-27T20:29:03.946Z,2.97
2022-09-27T20:33:57.546Z,3.60
2022-09-27T20:38:52.513Z,2.50
2022-09-27T20:43:49.507Z,2.65
2022-09-27T20:48:44.660Z,3.03
2022-09-27T20:53:37.891Z,3.13
2022-09-27T20:58:31.416Z,5.53
2022-09-27T21:03:24.644Z,4.40
2022-09-27T21:08:19.424Z,2.83
2022-09-27T21:13:12.905Z,2.83
2022-09-27T21:18:06.076Z,2.75
2022-09-27T21:22:59.214Z,2.20
2022-09-27T21:27:58.025Z,3.17
2022-09-27T21:32:57.460Z,2.83
2022-09-27T21:37:53.095Z,3.15
2022-09-27T21:42:46.133Z,3.50
2022-09-27T21:47:40.698Z,3.80
2022-09-27T21:52:33.884Z,4.40
2022-09-27T21:57:26.993Z,6.22
2022-09-27T22:02:20.477Z,6.85
2022-09-27T22:07:15.005Z,7.10
2022-09-27T22:12:08.292Z,7.07
2022-09-27T22:17:01.473Z,6.90
2022-09-27T22:21:54.704Z,7.07
2022-09-27T22:26:51.940Z,7.07
2022-09-27T22:31:45.198Z,6.90
2022-09-27T22:36:38.399Z,7.20
2022-09-27T22:41:32.230Z,6.82
2022-09-27T22:46:27.013Z,7.22
2022-09-27T22:51:20.569Z,6.75
2022-09-27T22:56:16.242Z,5.72
2022-09-27T23:01:10.702Z,5.32
2022-09-27T23:06:07.408Z,5.30
2022-09-27T23:11:05.091Z,4.93
2022-09-27T23:16:01.659Z,5.00
2022-09-27T23:20:56.692Z,4.43
2022-09-27T23:25:51.256Z,4.22
2022-09-27T23:30:44.308Z,4.28
2022-09-27T23:35:37.526Z,4.45
2022-09-27T23:40:31.585Z,3.90
2022-09-27T23:45:27.814Z,4.43
2022-09-27T23:50:22.045Z,3.92
2022-09-27T23:55:15.253Z,4.07
